sensor_id;sensor_type;location;lat;lon;timestamp;pressure;altitude;pressure_sealevel;temperature;humidity
23170;BME280;11753;43.144;24.714;2022-08-19T00:00:12;99124.69;;;23.82;55.47
23170;BME280;11753;43.144;24.714;2022-08-19T00:01:14;99118.00;;;23.84;55.41
23170;BME280;11753;43.144;24.714;2022-08-19T00:02:14;99120.94;;;23.83;55.39
23170;BME280;11753;43.144;24.714;2022-08-19T00:03:15;99120.38;;;23.81;55.56
23170;BME280;11753;43.144;24.714;2022-08-19T00:04:17;99124.38;;;23.78;55.44
23170;BME280;11753;43.144;24.714;2022-08-19T00:05:18;99123.53;;;23.73;55.88
23170;BME280;11753;43.144;24.714;2022-08-19T00:06:19;99126.75;;;23.75;55.73
23170;BME280;11753;43.144;24.714;2022-08-19T00:07:20;99130.00;;;23.77;55.96
23170;BME280;11753;43.144;24.714;2022-08-19T00:08:21;99121.88;;;23.72;55.95
23170;BME280;11753;43.144;24.714;2022-08-19T00:09:22;99132.00;;;23.65;56.16
23170;BME280;11753;43.144;24.714;2022-08-19T00:10:23;99126.53;;;23.59;56.34
23170;BME280;11753;43.144;24.714;2022-08-19T00:11:24;99130.38;;;23.64;56.13
23170;BME280;11753;43.144;24.714;2022-08-19T00:12:26;99128.28;;;23.66;56.08
23170;BME280;11753;43.144;24.714;2022-08-19T00:13:27;99128.00;;;23.67;56.15
23170;BME280;11753;43.144;24.714;2022-08-19T00:14:29;99127.63;;;23.58;56.52
23170;BME280;11753;43.144;24.714;2022-08-19T00:15:31;99130.69;;;23.67;56.25
23170;BME280;11753;43.144;24.714;2022-08-19T00:16:32;99130.03;;;23.60;56.33
23170;BME280;11753;43.144;24.714;2022-08-19T00:17:33;99126.31;;;23.61;56.52
23170;BME280;11753;43.144;24.714;2022-08-19T00:18:34;99130.53;;;23.57;56.56
23170;BME280;11753;43.144;24.714;2022-08-19T00:19:35;99128.66;;;23.57;56.50
23170;BME280;11753;43.144;24.714;2022-08-19T00:20:35;99122.25;;;23.58;56.68
23170;BME280;11753;43.144;24.714;2022-08-19T00:21:36;99128.34;;;23.54;56.95
23170;BME280;11753;43.144;24.714;2022-08-19T00:22:39;99135.09;;;23.56;56.84
23170;BME280;11753;43.144;24.714;2022-08-19T00:23:42;99127.00;;;23.51;57.10
23170;BME280;11753;43.144;24.714;2022-08-19T00:24:44;99135.03;;;23.51;57.04
23170;BME280;11753;43.144;24.714;2022-08-19T00:25:45;99129.91;;;23.50;57.02
23170;BME280;11753;43.144;24.714;2022-08-19T00:26:46;99125.34;;;23.50;57.01
23170;BME280;11753;43.144;24.714;2022-08-19T00:27:49;99124.78;;;23.48;57.00
23170;BME280;11753;43.144;24.714;2022-08-19T00:28:49;99121.63;;;23.51;57.15
23170;BME280;11753;43.144;24.714;2022-08-19T00:29:51;99117.28;;;23.50;56.79
23170;BME280;11753;43.144;24.714;2022-08-19T00:30:51;99122.34;;;23.47;57.29
23170;BME280;11753;43.144;24.714;2022-08-19T00:31:53;99133.34;;;23.45;57.18
23170;BME280;11753;43.144;24.714;2022-08-19T00:32:56;99135.22;;;23.45;57.44
23170;BME280;11753;43.144;24.714;2022-08-19T00:33:57;99123.91;;;23.43;57.49
23170;BME280;11753;43.144;24.714;2022-08-19T00:34:58;99128.88;;;23.34;57.53
23170;BME280;11753;43.144;24.714;2022-08-19T00:35:59;99124.59;;;23.33;57.81
23170;BME280;11753;43.144;24.714;2022-08-19T00:37:00;99122.63;;;23.28;57.75
23170;BME280;11753;43.144;24.714;2022-08-19T00:38:00;99120.19;;;23.27;57.93
23170;BME280;11753;43.144;24.714;2022-08-19T00:39:01;99127.69;;;23.25;57.92
23170;BME280;11753;43.144;24.714;2022-08-19T00:40:03;99129.31;;;23.26;57.88
23170;BME280;11753;43.144;24.714;2022-08-19T00:41:05;99122.25;;;23.20;58.18
23170;BME280;11753;43.144;24.714;2022-08-19T00:42:06;99113.94;;;23.21;58.10
23170;BME280;11753;43.144;24.714;2022-08-19T00:43:10;99112.09;;;23.22;58.36
23170;BME280;11753;43.144;24.714;2022-08-19T00:44:15;99118.03;;;23.24;57.99
23170;BME280;11753;43.144;24.714;2022-08-19T00:45:18;99115.34;;;23.24;58.14
23170;BME280;11753;43.144;24.714;2022-08-19T00:46:20;99116.97;;;23.25;58.05
23170;BME280;11753;43.144;24.714;2022-08-19T00:47:21;99119.09;;;23.23;57.90
23170;BME280;11753;43.144;24.714;2022-08-19T00:48:21;99117.38;;;23.17;58.04
23170;BME280;11753;43.144;24.714;2022-08-19T00:49:44;99120.41;;;23.03;58.47
23170;BME280;11753;43.144;24.714;2022-08-19T00:50:51;99125.38;;;23.12;58.12
23170;BME280;11753;43.144;24.714;2022-08-19T00:51:55;99128.03;;;23.12;58.23
23170;BME280;11753;43.144;24.714;2022-08-19T00:52:58;99117.88;;;23.14;58.39
23170;BME280;11753;43.144;24.714;2022-08-19T00:54:00;99114.88;;;23.10;58.31
23170;BME280;11753;43.144;24.714;2022-08-19T00:55:03;99121.63;;;23.13;58.32
23170;BME280;11753;43.144;24.714;2022-08-19T00:56:04;99120.56;;;23.14;58.17
23170;BME280;11753;43.144;24.714;2022-08-19T00:57:08;99130.00;;;23.16;58.20
23170;BME280;11753;43.144;24.714;2022-08-19T00:58:10;99124.03;;;23.14;58.13
23170;BME280;11753;43.144;24.714;2022-08-19T00:59:12;99125.38;;;23.12;58.45
23170;BME280;11753;43.144;24.714;2022-08-19T01:00:15;99126.44;;;23.11;58.38
23170;BME280;11753;43.144;24.714;2022-08-19T01:01:17;99129.66;;;23.13;58.19
23170;BME280;11753;43.144;24.714;2022-08-19T01:02:17;99123.50;;;23.12;58.39
23170;BME280;11753;43.144;24.714;2022-08-19T01:03:19;99129.53;;;23.02;58.68
23170;BME280;11753;43.144;24.714;2022-08-19T01:04:20;99128.47;;;23.03;58.73
23170;BME280;11753;43.144;24.714;2022-08-19T01:05:21;99123.19;;;23.09;58.52
23170;BME280;11753;43.144;24.714;2022-08-19T01:06:22;99121.63;;;23.13;58.61
23170;BME280;11753;43.144;24.714;2022-08-19T01:07:23;99126.97;;;23.13;58.63
23170;BME280;11753;43.144;24.714;2022-08-19T01:08:24;99130.66;;;23.06;58.95
23170;BME280;11753;43.144;24.714;2022-08-19T01:09:25;99133.91;;;23.09;58.79
23170;BME280;11753;43.144;24.714;2022-08-19T01:10:27;99132.31;;;23.08;58.73
23170;BME280;11753;43.144;24.714;2022-08-19T01:11:28;99132.31;;;23.08;58.87
23170;BME280;11753;43.144;24.714;2022-08-19T01:12:31;99137.16;;;23.11;58.83
23170;BME280;11753;43.144;24.714;2022-08-19T01:13:33;99139.84;;;23.11;58.48
23170;BME280;11753;43.144;24.714;2022-08-19T01:14:34;99139.03;;;23.10;58.72
23170;BME280;11753;43.144;24.714;2022-08-19T01:15:40;99141.88;;;23.03;58.68
23170;BME280;11753;43.144;24.714;2022-08-19T01:16:42;99144.06;;;23.06;58.59
23170;BME280;11753;43.144;24.714;2022-08-19T01:17:43;99139.75;;;23.05;58.61
23170;BME280;11753;43.144;24.714;2022-08-19T01:18:47;99141.81;;;22.98;58.97
23170;BME280;11753;43.144;24.714;2022-08-19T01:19:49;99147.41;;;22.97;59.14
23170;BME280;11753;43.144;24.714;2022-08-19T01:20:50;99138.81;;;22.95;58.92
23170;BME280;11753;43.144;24.714;2022-08-19T01:23:18;99136.34;;;22.76;59.76
23170;BME280;11753;43.144;24.714;2022-08-19T01:24:19;99142.03;;;22.80;59.72
23170;BME280;11753;43.144;24.714;2022-08-19T01:25:21;99143.00;;;22.74;59.82
23170;BME280;11753;43.144;24.714;2022-08-19T01:26:23;99148.94;;;22.59;60.19
23170;BME280;11753;43.144;24.714;2022-08-19T01:27:24;99151.78;;;22.52;60.95
23170;BME280;11753;43.144;24.714;2022-08-19T01:28:27;99150.81;;;22.59;60.50
23170;BME280;11753;43.144;24.714;2022-08-19T01:29:28;99151.94;;;22.46;61.12
23170;BME280;11753;43.144;24.714;2022-08-19T01:30:34;99140.25;;;22.52;60.86
23170;BME280;11753;43.144;24.714;2022-08-19T01:31:35;99151.22;;;22.50;60.88
23170;BME280;11753;43.144;24.714;2022-08-19T01:32:37;99146.47;;;22.41;61.23
23170;BME280;11753;43.144;24.714;2022-08-19T01:33:38;99138.56;;;22.34;61.36
23170;BME280;11753;43.144;24.714;2022-08-19T01:34:38;99144.75;;;22.35;61.67
23170;BME280;11753;43.144;24.714;2022-08-19T01:35:40;99138.56;;;22.34;61.77
23170;BME280;11753;43.144;24.714;2022-08-19T01:36:42;99146.31;;;22.31;62.04
23170;BME280;11753;43.144;24.714;2022-08-19T01:37:47;99145.09;;;22.38;61.85
23170;BME280;11753;43.144;24.714;2022-08-19T01:38:48;99142.88;;;22.35;61.98
23170;BME280;11753;43.144;24.714;2022-08-19T01:39:49;99158.50;;;22.38;61.95
23170;BME280;11753;43.144;24.714;2022-08-19T01:40:51;99148.59;;;22.39;61.75
23170;BME280;11753;43.144;24.714;2022-08-19T01:41:52;99151.13;;;22.45;61.87
23170;BME280;11753;43.144;24.714;2022-08-19T01:42:54;99153.22;;;22.43;61.72
23170;BME280;11753;43.144;24.714;2022-08-19T01:43:55;99155.91;;;22.43;61.77
23170;BME280;11753;43.144;24.714;2022-08-19T01:44:56;99156.13;;;22.42;61.69
23170;BME280;11753;43.144;24.714;2022-08-19T01:45:57;99158.59;;;22.43;61.67
23170;BME280;11753;43.144;24.714;2022-08-19T01:46:57;99161.19;;;22.38;61.90
23170;BME280;11753;43.144;24.714;2022-08-19T01:47:58;99151.41;;;22.32;62.10
23170;BME280;11753;43.144;24.714;2022-08-19T01:48:59;99158.09;;;22.30;62.25
23170;BME280;11753;43.144;24.714;2022-08-19T01:50:00;99159.22;;;22.34;62.01
23170;BME280;11753;43.144;24.714;2022-08-19T01:51:01;99158.91;;;22.30;62.07
23170;BME280;11753;43.144;24.714;2022-08-19T01:52:03;99160.97;;;22.28;62.08
23170;BME280;11753;43.144;24.714;2022-08-19T01:53:05;99163.91;;;22.27;62.23
23170;BME280;11753;43.144;24.714;2022-08-19T01:54:08;99160.16;;;22.28;62.25
23170;BME280;11753;43.144;24.714;2022-08-19T01:55:11;99165.88;;;22.31;62.17
23170;BME280;11753;43.144;24.714;2022-08-19T01:56:12;99160.03;;;22.34;62.24
23170;BME280;11753;43.144;24.714;2022-08-19T01:57:13;99160.97;;;22.28;62.40
23170;BME280;11753;43.144;24.714;2022-08-19T01:58:16;99160.25;;;22.16;62.85
23170;BME280;11753;43.144;24.714;2022-08-19T01:59:19;99157.63;;;22.21;62.66
23170;BME280;11753;43.144;24.714;2022-08-19T02:00:22;99152.19;;;22.16;63.02
23170;BME280;11753;43.144;24.714;2022-08-19T02:01:23;99144.50;;;22.08;63.12
23170;BME280;11753;43.144;24.714;2022-08-19T02:02:24;99149.97;;;22.13;63.07
23170;BME280;11753;43.144;24.714;2022-08-19T02:03:25;99151.72;;;22.19;62.94
23170;BME280;11753;43.144;24.714;2022-08-19T02:04:25;99152.19;;;22.16;62.72
23170;BME280;11753;43.144;24.714;2022-08-19T02:05:27;99157.72;;;22.26;62.61
23170;BME280;11753;43.144;24.714;2022-08-19T02:06:29;99156.16;;;22.13;63.20
23170;BME280;11753;43.144;24.714;2022-08-19T02:07:30;99150.34;;;22.05;63.34
23170;BME280;11753;43.144;24.714;2022-08-19T02:08:34;99149.41;;;22.11;63.35
23170;BME280;11753;43.144;24.714;2022-08-19T02:09:36;99150.56;;;22.15;63.21
23170;BME280;11753;43.144;24.714;2022-08-19T02:10:40;99161.63;;;22.18;62.95
23170;BME280;11753;43.144;24.714;2022-08-19T02:11:42;99153.81;;;22.17;62.92
23170;BME280;11753;43.144;24.714;2022-08-19T02:12:43;99156.25;;;22.18;62.81
23170;BME280;11753;43.144;24.714;2022-08-19T02:13:44;99149.59;;;22.21;62.70
23170;BME280;11753;43.144;24.714;2022-08-19T02:14:44;99160.56;;;22.19;62.81
23170;BME280;11753;43.144;24.714;2022-08-19T02:15:45;99156.13;;;22.25;62.75
23170;BME280;11753;43.144;24.714;2022-08-19T02:16:46;99146.91;;;22.21;62.74
23170;BME280;11753;43.144;24.714;2022-08-19T02:17:47;99158.69;;;22.20;63.08
23170;BME280;11753;43.144;24.714;2022-08-19T02:18:48;99153.00;;;22.16;63.09
23170;BME280;11753;43.144;24.714;2022-08-19T02:19:48;99159.19;;;22.17;62.99
23170;BME280;11753;43.144;24.714;2022-08-19T02:20:49;99156.25;;;22.18;63.14
23170;BME280;11753;43.144;24.714;2022-08-19T02:21:49;99160.81;;;22.18;63.12
23170;BME280;11753;43.144;24.714;2022-08-19T02:22:50;99166.16;;;22.18;63.22
23170;BME280;11753;43.144;24.714;2022-08-19T02:23:51;99165.66;;;22.21;63.03
23170;BME280;11753;43.144;24.714;2022-08-19T02:24:52;99162.09;;;22.15;63.17
23170;BME280;11753;43.144;24.714;2022-08-19T02:25:53;99167.22;;;22.17;63.23
23170;BME280;11753;43.144;24.714;2022-08-19T02:26:54;99162.56;;;22.12;63.44
23170;BME280;11753;43.144;24.714;2022-08-19T02:27:54;99165.00;;;22.14;63.30
23170;BME280;11753;43.144;24.714;2022-08-19T02:28:55;99164.53;;;22.17;63.26
23170;BME280;11753;43.144;24.714;2022-08-19T02:29:56;99171.53;;;22.18;63.38
23170;BME280;11753;43.144;24.714;2022-08-19T02:30:56;99167.78;;;22.19;63.34
23170;BME280;11753;43.144;24.714;2022-08-19T02:31:56;99171.03;;;22.21;63.24
23170;BME280;11753;43.144;24.714;2022-08-19T02:32:57;99171.03;;;22.21;63.12
23170;BME280;11753;43.144;24.714;2022-08-19T02:33:58;99177.38;;;22.15;63.42
23170;BME280;11753;43.144;24.714;2022-08-19T02:34:59;99169.78;;;22.12;63.37
23170;BME280;11753;43.144;24.714;2022-08-19T02:36:02;99171.53;;;22.06;63.64
23170;BME280;11753;43.144;24.714;2022-08-19T02:37:03;99177.03;;;21.99;63.94
23170;BME280;11753;43.144;24.714;2022-08-19T02:38:04;99174.34;;;21.99;63.81
23170;BME280;11753;43.144;24.714;2022-08-19T02:39:23;99173.47;;;21.94;63.96
23170;BME280;11753;43.144;24.714;2022-08-19T02:40:24;99178.47;;;21.90;64.11
23170;BME280;11753;43.144;24.714;2022-08-19T02:41:26;99173.66;;;21.92;64.02
23170;BME280;11753;43.144;24.714;2022-08-19T02:42:27;99166.69;;;21.91;64.23
23170;BME280;11753;43.144;24.714;2022-08-19T02:43:28;99166.69;;;21.91;64.08
23170;BME280;11753;43.144;24.714;2022-08-19T02:44:29;99164.13;;;21.85;64.37
23170;BME280;11753;43.144;24.714;2022-08-19T02:45:36;99165.44;;;21.82;64.38
23170;BME280;11753;43.144;24.714;2022-08-19T02:46:37;99174.41;;;21.76;64.68
23170;BME280;11753;43.144;24.714;2022-08-19T02:47:38;99169.56;;;21.73;64.96
23170;BME280;11753;43.144;24.714;2022-08-19T02:48:39;99170.69;;;21.77;64.84
23170;BME280;11753;43.144;24.714;2022-08-19T02:49:39;99172.78;;;21.75;65.00
23170;BME280;11753;43.144;24.714;2022-08-19T02:50:40;99173.59;;;21.76;65.10
23170;BME280;11753;43.144;24.714;2022-08-19T02:51:41;99174.53;;;21.81;64.60
23170;BME280;11753;43.144;24.714;2022-08-19T02:52:42;99171.84;;;21.81;64.71
23170;BME280;11753;43.144;24.714;2022-08-19T02:53:43;99170.31;;;21.85;64.42
23170;BME280;11753;43.144;24.714;2022-08-19T02:54:43;99174.16;;;21.89;64.61
23170;BME280;11753;43.144;24.714;2022-08-19T02:55:45;99170.78;;;21.94;64.45
23170;BME280;11753;43.144;24.714;2022-08-19T02:56:46;99175.91;;;21.95;64.31
23170;BME280;11753;43.144;24.714;2022-08-19T02:57:47;99175.22;;;21.88;64.61
23170;BME280;11753;43.144;24.714;2022-08-19T02:58:48;99178.94;;;21.87;64.51
23170;BME280;11753;43.144;24.714;2022-08-19T02:59:49;99181.72;;;21.92;64.39
23170;BME280;11753;43.144;24.714;2022-08-19T03:00:52;99170.28;;;21.97;64.18
23170;BME280;11753;43.144;24.714;2022-08-19T03:01:53;99179.41;;;21.84;64.53
23170;BME280;11753;43.144;24.714;2022-08-19T03:02:53;99174.84;;;21.85;64.64
23170;BME280;11753;43.144;24.714;2022-08-19T03:03:55;99183.25;;;21.88;64.79
23170;BME280;11753;43.144;24.714;2022-08-19T03:04:56;99179.50;;;21.89;64.83
23170;BME280;11753;43.144;24.714;2022-08-19T03:06:06;99177.91;;;21.88;64.72
23170;BME280;11753;43.144;24.714;2022-08-19T03:07:07;99180.56;;;21.88;64.64
23170;BME280;11753;43.144;24.714;2022-08-19T03:08:08;99179.28;;;21.91;64.73
23170;BME280;11753;43.144;24.714;2022-08-19T03:09:11;99178.22;;;21.92;64.78
23170;BME280;11753;43.144;24.714;2022-08-19T03:10:12;99169.97;;;21.93;64.87
23170;BME280;11753;43.144;24.714;2022-08-19T03:11:19;99182.31;;;21.94;64.65
23170;BME280;11753;43.144;24.714;2022-08-19T03:12:20;99179.63;;;21.94;64.77
23170;BME280;11753;43.144;24.714;2022-08-19T03:13:21;99180.44;;;21.95;64.73
23170;BME280;11753;43.144;24.714;2022-08-19T03:14:22;99185.19;;;21.93;64.76
23170;BME280;11753;43.144;24.714;2022-08-19T03:15:23;99188.94;;;21.92;64.90
23170;BME280;11753;43.144;24.714;2022-08-19T03:16:25;99185.44;;;21.91;65.00
23170;BME280;11753;43.144;24.714;2022-08-19T03:17:26;99190.22;;;21.89;65.03
23170;BME280;11753;43.144;24.714;2022-08-19T03:18:27;99180.00;;;21.86;65.17
23170;BME280;11753;43.144;24.714;2022-08-19T03:19:28;99188.03;;;21.86;65.19
23170;BME280;11753;43.144;24.714;2022-08-19T03:20:29;99196.06;;;21.86;64.96
23170;BME280;11753;43.144;24.714;2022-08-19T03:21:30;99190.72;;;21.86;64.91
23170;BME280;11753;43.144;24.714;2022-08-19T03:22:32;99194.09;;;21.82;65.02
23170;BME280;11753;43.144;24.714;2022-08-19T03:23:32;99200.25;;;21.82;64.95
23170;BME280;11753;43.144;24.714;2022-08-19T03:24:33;99194.84;;;21.65;65.46
23170;BME280;11753;43.144;24.714;2022-08-19T03:25:37;99194.03;;;21.65;65.53
23170;BME280;11753;43.144;24.714;2022-08-19T03:26:40;99200.88;;;21.73;65.64
23170;BME280;11753;43.144;24.714;2022-08-19T03:27:41;99197.84;;;21.69;65.49
23170;BME280;11753;43.144;24.714;2022-08-19T03:28:42;99198.91;;;21.68;65.70
23170;BME280;11753;43.144;24.714;2022-08-19T03:29:43;99204.25;;;21.68;65.87
23170;BME280;11753;43.144;24.714;2022-08-19T03:30:54;99204.03;;;21.58;66.14
23170;BME280;11753;43.144;24.714;2022-08-19T03:32:03;99203.09;;;21.64;65.85
23170;BME280;11753;43.144;24.714;2022-08-19T03:33:05;99201.00;;;21.66;65.87
23170;BME280;11753;43.144;24.714;2022-08-19T03:34:09;99205.88;;;21.69;65.80
23170;BME280;11753;43.144;24.714;2022-08-19T03:35:12;99202.38;;;21.68;65.85
23170;BME280;11753;43.144;24.714;2022-08-19T03:36:14;99204.72;;;21.65;66.11
23170;BME280;11753;43.144;24.714;2022-08-19T03:37:15;99202.38;;;21.68;65.75
23170;BME280;11753;43.144;24.714;2022-08-19T03:38:15;99200.28;;;21.70;65.67
23170;BME280;11753;43.144;24.714;2022-08-19T03:39:16;99203.78;;;21.71;65.73
23170;BME280;11753;43.144;24.714;2022-08-19T03:40:17;99202.16;;;21.70;65.85
23170;BME280;11753;43.144;24.714;2022-08-19T03:41:20;99207.84;;;21.74;65.92
23170;BME280;11753;43.144;24.714;2022-08-19T03:42:23;99203.31;;;21.74;65.53
23170;BME280;11753;43.144;24.714;2022-08-19T03:43:27;99210.28;;;21.75;65.75
23170;BME280;11753;43.144;24.714;2022-08-19T03:44:29;99213.53;;;21.77;65.62
23170;BME280;11753;43.144;24.714;2022-08-19T03:45:30;99209.94;;;21.71;65.80
23170;BME280;11753;43.144;24.714;2022-08-19T03:46:32;99217.84;;;21.78;65.52
23170;BME280;11753;43.144;24.714;2022-08-19T03:47:33;99211.34;;;21.74;65.52
23170;BME280;11753;43.144;24.714;2022-08-19T03:48:34;99214.72;;;21.81;65.72
23170;BME280;11753;43.144;24.714;2022-08-19T03:49:34;99219.25;;;21.81;65.52
23170;BME280;11753;43.144;24.714;2022-08-19T03:50:39;99222.50;;;21.83;65.60
23170;BME280;11753;43.144;24.714;2022-08-19T03:51:40;99224.69;;;21.86;65.57
23170;BME280;11753;43.144;24.714;2022-08-19T03:52:42;99217.50;;;21.86;65.47
23170;BME280;11753;43.144;24.714;2022-08-19T03:53:43;99220.28;;;21.91;65.30
23170;BME280;11753;43.144;24.714;2022-08-19T03:54:44;99223.19;;;21.90;65.12
23170;BME280;11753;43.144;24.714;2022-08-19T03:55:45;99221.91;;;21.92;65.03
23170;BME280;11753;43.144;24.714;2022-08-19T03:56:47;99224.00;;;21.90;64.99
23170;BME280;11753;43.144;24.714;2022-08-19T03:57:48;99228.31;;;21.91;65.28
23170;BME280;11753;43.144;24.714;2022-08-19T03:58:49;99227.84;;;21.94;65.17
23170;BME280;11753;43.144;24.714;2022-08-19T03:59:50;99219.00;;;21.94;65.15
23170;BME280;11753;43.144;24.714;2022-08-19T04:00:50;99224.69;;;21.97;65.17
23170;BME280;11753;43.144;24.714;2022-08-19T04:01:52;99222.56;;;21.99;64.92
23170;BME280;11753;43.144;24.714;2022-08-19T04:02:53;99220.00;;;22.05;65.08
23170;BME280;11753;43.144;24.714;2022-08-19T04:03:53;99217.81;;;22.02;64.98
23170;BME280;11753;43.144;24.714;2022-08-19T04:04:54;99217.91;;;22.07;64.90
23170;BME280;11753;43.144;24.714;2022-08-19T04:05:55;99213.97;;;22.09;65.10
23170;BME280;11753;43.144;24.714;2022-08-19T04:06:56;99217.59;;;22.15;64.84
23170;BME280;11753;43.144;24.714;2022-08-19T04:07:57;99217.34;;;22.16;64.66
23170;BME280;11753;43.144;24.714;2022-08-19T04:08:59;99216.03;;;22.19;64.79
23170;BME280;11753;43.144;24.714;2022-08-19T04:10:00;99220.84;;;22.17;64.66
23170;BME280;11753;43.144;24.714;2022-08-19T04:11:00;99223.84;;;22.20;64.55
23170;BME280;11753;43.144;24.714;2022-08-19T04:12:02;99230.00;;;22.21;64.69
23170;BME280;11753;43.144;24.714;2022-08-19T04:13:05;99225.69;;;22.20;64.51
23170;BME280;11753;43.144;24.714;2022-08-19T04:14:08;99230.25;;;22.19;64.54
23170;BME280;11753;43.144;24.714;2022-08-19T04:15:09;99229.94;;;22.16;64.50
23170;BME280;11753;43.144;24.714;2022-08-19T04:16:10;99236.81;;;22.12;64.70
23170;BME280;11753;43.144;24.714;2022-08-19T04:17:11;99235.50;;;22.14;64.56
23170;BME280;11753;43.144;24.714;2022-08-19T04:18:12;99232.38;;;22.17;64.63
23170;BME280;11753;43.144;24.714;2022-08-19T04:19:13;99235.28;;;22.16;64.88
23170;BME280;11753;43.144;24.714;2022-08-19T04:20:14;99229.81;;;22.11;64.95
23170;BME280;11753;43.144;24.714;2022-08-19T04:21:16;99240.66;;;22.16;64.80
23170;BME280;11753;43.144;24.714;2022-08-19T04:22:17;99239.09;;;22.20;64.95
23170;BME280;11753;43.144;24.714;2022-08-19T04:23:18;99241.22;;;22.18;64.89
23170;BME280;11753;43.144;24.714;2022-08-19T04:24:20;99233.59;;;22.27;64.58
23170;BME280;11753;43.144;24.714;2022-08-19T04:25:21;99241.09;;;22.24;64.77
23170;BME280;11753;43.144;24.714;2022-08-19T04:26:23;99245.13;;;22.27;64.59
23170;BME280;11753;43.144;24.714;2022-08-19T04:27:24;99235.00;;;22.29;64.41
23170;BME280;11753;43.144;24.714;2022-08-19T04:28:25;99242.31;;;22.34;64.53
23170;BME280;11753;43.144;24.714;2022-08-19T04:29:26;99251.56;;;22.26;64.49
23170;BME280;11753;43.144;24.714;2022-08-19T04:30:27;99243.38;;;22.33;64.22
23170;BME280;11753;43.144;24.714;2022-08-19T04:31:29;99250.63;;;22.32;64.25
23170;BME280;11753;43.144;24.714;2022-08-19T04:32:31;99241.50;;;22.33;64.41
23170;BME280;11753;43.144;24.714;2022-08-19T04:33:32;99250.25;;;22.29;64.37
23170;BME280;11753;43.144;24.714;2022-08-19T04:34:33;99243.63;;;22.31;64.40
23170;BME280;11753;43.144;24.714;2022-08-19T04:35:40;99246.97;;;22.38;63.93
23170;BME280;11753;43.144;24.714;2022-08-19T04:36:42;99241.63;;;22.38;64.22
23170;BME280;11753;43.144;24.714;2022-08-19T04:37:44;99237.63;;;22.41;64.00
23170;BME280;11753;43.144;24.714;2022-08-19T04:38:45;99241.47;;;22.45;64.08
23170;BME280;11753;43.144;24.714;2022-08-19T04:39:45;99247.09;;;22.43;64.01
23170;BME280;11753;43.144;24.714;2022-08-19T04:41:04;99247.97;;;22.49;63.93
23170;BME280;11753;43.144;24.714;2022-08-19T04:42:24;99237.59;;;22.52;63.97
23170;BME280;11753;43.144;24.714;2022-08-19T04:43:44;99241.34;;;22.51;63.81
23170;BME280;11753;43.144;24.714;2022-08-19T04:44:48;99240.84;;;22.55;63.51
23170;BME280;11753;43.144;24.714;2022-08-19T04:45:51;99246.31;;;22.60;63.75
23170;BME280;11753;43.144;24.714;2022-08-19T04:46:52;99245.56;;;22.64;63.66
23170;BME280;11753;43.144;24.714;2022-08-19T04:47:54;99242.66;;;22.66;63.35
23170;BME280;11753;43.144;24.714;2022-08-19T04:48:56;99246.22;;;22.71;63.21
23170;BME280;11753;43.144;24.714;2022-08-19T04:50:57;99244.00;;;22.80;62.95
23170;BME280;11753;43.144;24.714;2022-08-19T04:51:58;99239.44;;;22.80;63.13
23170;BME280;11753;43.144;24.714;2022-08-19T04:52:58;99240.13;;;22.88;62.83
23170;BME280;11753;43.144;24.714;2022-08-19T04:54:00;99244.19;;;22.90;62.74
23170;BME280;11753;43.144;24.714;2022-08-19T04:55:01;99241.59;;;22.95;62.59
23170;BME280;11753;43.144;24.714;2022-08-19T04:56:06;99245.41;;;22.99;62.59
23170;BME280;11753;43.144;24.714;2022-08-19T04:57:08;99246.00;;;23.01;62.25
23170;BME280;11753;43.144;24.714;2022-08-19T04:58:10;99242.56;;;23.06;62.38
23170;BME280;11753;43.144;24.714;2022-08-19T04:59:10;99241.59;;;23.12;62.17
23170;BME280;11753;43.144;24.714;2022-08-19T05:00:12;99246.16;;;23.12;62.08
23170;BME280;11753;43.144;24.714;2022-08-19T05:01:14;99237.63;;;23.15;61.92
23170;BME280;11753;43.144;24.714;2022-08-19T05:02:17;99246.81;;;23.19;62.02
23170;BME280;11753;43.144;24.714;2022-08-19T05:03:18;99240.97;;;23.22;61.78
23170;BME280;11753;43.144;24.714;2022-08-19T05:04:19;99243.88;;;23.20;62.06
23170;BME280;11753;43.144;24.714;2022-08-19T05:05:20;99239.81;;;23.18;62.20
23170;BME280;11753;43.144;24.714;2022-08-19T05:06:22;99245.19;;;23.18;62.20
23170;BME280;11753;43.144;24.714;2022-08-19T05:07:23;99242.44;;;23.29;61.86
23170;BME280;11753;43.144;24.714;2022-08-19T05:08:24;99238.97;;;23.34;61.59
23170;BME280;11753;43.144;24.714;2022-08-19T05:09:24;99245.00;;;23.41;61.34
23170;BME280;11753;43.144;24.714;2022-08-19T05:10:24;99245.91;;;23.47;61.34
23170;BME280;11753;43.144;24.714;2022-08-19T05:11:26;99251.56;;;23.50;61.30
23170;BME280;11753;43.144;24.714;2022-08-19T05:12:28;99254.59;;;23.54;61.27
23170;BME280;11753;43.144;24.714;2022-08-19T05:13:29;99250.69;;;23.61;60.92
23170;BME280;11753;43.144;24.714;2022-08-19T05:14:30;99246.84;;;23.57;61.20
23170;BME280;11753;43.144;24.714;2022-08-19T05:15:31;99255.25;;;23.61;61.07
23170;BME280;11753;43.144;24.714;2022-08-19T05:16:32;99246.63;;;23.59;60.88
23170;BME280;11753;43.144;24.714;2022-08-19T05:17:32;99252.31;;;23.63;60.89
23170;BME280;11753;43.144;24.714;2022-08-19T05:18:33;99249.38;;;23.64;60.48
23170;BME280;11753;43.144;24.714;2022-08-19T05:19:54;99259.16;;;23.70;60.52
23170;BME280;11753;43.144;24.714;2022-08-19T05:21:15;99254.09;;;23.74;60.59
23170;BME280;11753;43.144;24.714;2022-08-19T05:22:35;99246.72;;;23.86;60.17
23170;BME280;11753;43.144;24.714;2022-08-19T05:23:35;99255.84;;;23.85;60.23
23170;BME280;11753;43.144;24.714;2022-08-19T05:24:36;99241.94;;;23.88;60.18
23170;BME280;11753;43.144;24.714;2022-08-19T05:25:40;99248.69;;;23.91;60.16
23170;BME280;11753;43.144;24.714;2022-08-19T05:26:47;99252.25;;;23.96;60.08